Time;durP1;ratioP1;P1;durP2;ratioP2;P2;SDS_P1;SDS_P2;PMS_P1;PMS_P2;Temp;Humidity;BMP_temperature;BMP_pressure;BME280_temperature;BME280_humidity;BME280_pressure;Samples;Min_cycle;Max_cycle;Signal;HPM_P1;HPM_P2
2022/05/14 00:00:34;;;;;;;6.28;1.63;;;7.30;99.90;;;;;;4991969;28;20890;-81
2022/05/14 00:03:03;;;;;;;3.20;1.40;;;7.30;99.90;;;;;;4990213;28;20826;-81
2022/05/14 00:05:31;;;;;;;4.40;1.30;;;7.30;99.90;;;;;;5008051;28;20395;-80
2022/05/14 00:07:59;;;;;;;4.50;1.35;;;7.10;99.90;;;;;;5007652;28;20405;-80
2022/05/14 00:10:31;;;;;;;6.30;1.63;;;7.10;99.90;;;;;;4992161;28;20412;-81
2022/05/14 00:13:05;;;;;;;6.38;1.55;;;7.20;99.90;;;;;;5007153;28;20933;-81
2022/05/14 00:15:38;;;;;;;5.85;1.50;;;7.10;99.90;;;;;;5007953;28;20398;-80
2022/05/14 00:18:08;;;;;;;4.10;1.40;;;7.20;99.90;;;;;;5009931;28;20411;-81
2022/05/14 00:20:38;;;;;;;5.27;1.40;;;7.20;99.90;;;;;;5011272;28;20408;-80
2022/05/14 00:23:06;;;;;;;5.72;1.50;;;7.10;99.90;;;;;;5007040;28;20388;-81
2022/05/14 00:25:35;;;;;;;4.68;1.58;;;7.10;99.90;;;;;;5007565;28;20440;-81
2022/05/14 00:28:03;;;;;;;6.22;1.45;;;7.00;99.90;;;;;;5004171;28;20394;-80
2022/05/14 00:30:31;;;;;;;4.63;1.80;;;7.10;99.90;;;;;;5010158;28;20491;-81
2022/05/14 00:32:59;;;;;;;3.55;1.35;;;7.00;99.90;;;;;;5010956;28;20395;-81
2022/05/14 00:35:27;;;;;;;6.60;1.83;;;7.10;99.90;;;;;;5006799;28;20439;-81
2022/05/14 00:37:55;;;;;;;5.22;1.38;;;7.00;99.90;;;;;;4997618;28;20787;-81
2022/05/14 00:40:38;;;;;;;7.22;1.80;;;7.10;99.90;;;;;;5004688;28;20424;-81
2022/05/14 00:43:08;;;;;;;4.32;1.65;;;7.00;99.90;;;;;;4995674;28;20396;-79
2022/05/14 00:45:39;;;;;;;3.75;1.52;;;7.10;99.90;;;;;;5010624;28;20383;-80
2022/05/14 00:48:11;;;;;;;4.00;1.40;;;7.00;99.90;;;;;;5009234;28;20874;-80
2022/05/14 00:50:46;;;;;;;4.87;1.70;;;7.00;99.90;;;;;;5010584;28;20802;-80
2022/05/14 00:53:22;;;;;;;5.43;1.95;;;7.00;99.90;;;;;;5004367;28;20387;-80
2022/05/14 00:55:54;;;;;;;4.60;1.60;;;6.90;99.90;;;;;;4992609;28;20483;-81
2022/05/14 00:59:08;;;;;;;6.22;1.60;;;6.90;99.90;;;;;;5009587;28;20413;-81
2022/05/14 01:01:38;;;;;;;5.22;1.80;;;6.90;99.90;;;;;;4990756;28;21267;-81
2022/05/14 01:04:07;;;;;;;5.00;1.65;;;6.90;99.90;;;;;;4992507;28;20401;-80
2022/05/14 01:06:37;;;;;;;6.20;1.90;;;6.90;99.90;;;;;;5006300;28;20492;-80
2022/05/14 01:09:06;;;;;;;3.72;1.60;;;6.80;99.90;;;;;;4991239;28;20815;-80
2022/05/14 01:11:38;;;;;;;6.47;1.73;;;6.70;99.90;;;;;;5006336;28;20393;-78
2022/05/14 01:14:07;;;;;;;5.85;1.60;;;6.70;99.90;;;;;;5006689;28;20393;-79
2022/05/14 01:16:37;;;;;;;3.95;1.60;;;6.70;99.90;;;;;;5008017;28;20391;-80
2022/05/14 01:19:06;;;;;;;7.95;1.90;;;6.70;99.90;;;;;;5006318;28;20409;-80
2022/05/14 01:22:05;;;;;;;5.20;2.00;;;6.70;99.90;;;;;;4990590;28;20480;-80
2022/05/14 01:27:54;;;;;;;8.25;2.00;;;6.60;99.90;;;;;;5008370;28;20414;-80
2022/05/14 01:30:24;;;;;;;5.27;1.80;;;6.50;99.90;;;;;;4993847;28;20407;-81
2022/05/14 01:33:04;;;;;;;5.18;1.70;;;6.60;99.90;;;;;;5009910;28;20404;-80
2022/05/14 01:35:44;;;;;;;4.40;2.00;;;6.60;99.90;;;;;;5010355;28;20445;-80
2022/05/14 01:38:17;;;;;;;4.87;2.07;;;6.50;99.90;;;;;;4993993;28;20407;-78
2022/05/14 01:40:46;;;;;;;5.80;1.98;;;6.50;99.90;;;;;;4993178;28;20905;-81
2022/05/14 01:43:13;;;;;;;4.63;1.88;;;6.40;99.90;;;;;;5008602;28;20844;-80
2022/05/14 01:45:42;;;;;;;5.53;1.80;;;6.40;99.90;;;;;;5009293;28;20399;-80
2022/05/14 01:48:10;;;;;;;5.78;2.13;;;6.50;99.90;;;;;;5011018;28;20757;-80
2022/05/14 01:50:38;;;;;;;7.32;2.10;;;6.50;99.90;;;;;;5008767;28;20434;-79
2022/05/14 01:53:06;;;;;;;6.70;2.15;;;6.50;99.90;;;;;;5010124;28;20802;-80
2022/05/14 01:55:34;;;;;;;5.10;1.90;;;6.50;99.90;;;;;;5009443;28;20391;-81
2022/05/14 01:58:36;;;;;;;5.82;2.20;;;6.40;99.90;;;;;;5001879;28;20494;-79
2022/05/14 02:00:54;;;;;;;7.88;2.53;;;6.40;99.90;;;;;;4995230;28;20432;-80
2022/05/14 02:03:23;;;;;;;7.00;2.50;;;6.40;99.90;;;;;;4991878;28;20475;-81
2022/05/14 02:05:51;;;;;;;11.25;2.85;;;6.30;99.90;;;;;;5006369;28;20420;-81
2022/05/14 02:08:19;;;;;;;7.93;2.58;;;6.40;99.90;;;;;;5006430;28;20480;-80
2022/05/14 02:10:47;;;;;;;9.00;2.80;;;6.40;99.90;;;;;;4988454;28;20393;-81
2022/05/14 02:13:17;;;;;;;8.35;2.90;;;6.40;99.90;;;;;;5008075;28;20922;-81
2022/05/14 02:15:45;;;;;;;7.53;3.05;;;6.40;99.90;;;;;;5008919;28;20394;-80
2022/05/14 02:18:13;;;;;;;9.00;2.97;;;6.20;99.90;;;;;;5009483;28;20435;-81
2022/05/14 02:20:41;;;;;;;10.55;3.15;;;6.40;99.90;;;;;;5010029;28;20406;-81
2022/05/14 02:23:09;;;;;;;10.70;3.42;;;6.50;99.90;;;;;;5010762;28;20426;-80
2022/05/14 02:25:37;;;;;;;10.87;3.00;;;6.40;99.90;;;;;;5012066;28;20387;-81
2022/05/14 02:28:05;;;;;;;10.43;3.65;;;6.20;99.90;;;;;;5012784;28;20478;-80
2022/05/14 02:30:33;;;;;;;9.82;3.50;;;6.10;99.90;;;;;;5012713;28;20965;-80
2022/05/14 02:33:01;;;;;;;9.88;4.32;;;6.10;99.90;;;;;;5013783;28;20873;-81
2022/05/14 02:35:30;;;;;;;11.68;3.88;;;6.20;99.90;;;;;;5012316;28;20441;-81
2022/05/14 02:37:57;;;;;;;11.80;4.83;;;6.30;99.90;;;;;;5012744;28;20481;-81
2022/05/14 02:40:26;;;;;;;12.68;4.18;;;6.30;99.90;;;;;;5011248;28;20535;-82
2022/05/14 02:42:53;;;;;;;12.18;4.47;;;6.40;99.90;;;;;;5012740;28;20413;-81
2022/05/14 02:45:22;;;;;;;11.35;5.25;;;6.50;99.90;;;;;;5013215;28;20403;-81
2022/05/14 02:47:50;;;;;;;13.73;5.05;;;6.40;99.90;;;;;;5013008;28;20403;-81
2022/05/14 02:50:20;;;;;;;10.45;5.57;;;6.50;99.90;;;;;;5013381;28;20405;-81
2022/05/14 02:52:48;;;;;;;11.90;4.85;;;6.40;99.90;;;;;;5003370;28;20877;-81
2022/05/14 02:55:16;;;;;;;16.02;5.95;;;6.40;99.90;;;;;;5008573;28;20403;-81
2022/05/14 02:57:44;;;;;;;13.25;5.75;;;6.50;99.90;;;;;;4999505;28;20775;-81
2022/05/14 03:00:16;;;;;;;16.38;6.53;;;6.40;99.90;;;;;;4991852;28;20405;-82
2022/05/14 03:02:45;;;;;;;14.85;6.13;;;6.20;99.90;;;;;;4977939;28;20423;-80
2022/05/14 03:05:16;;;;;;;15.70;6.15;;;6.20;99.90;;;;;;5009280;28;20397;-81
2022/05/14 03:07:45;;;;;;;16.17;6.95;;;6.40;99.90;;;;;;4998016;28;20403;-81
2022/05/14 03:10:13;;;;;;;20.67;7.25;;;6.40;99.90;;;;;;5005717;28;20505;-81
2022/05/14 03:12:41;;;;;;;15.73;6.38;;;6.40;99.90;;;;;;4993046;28;20421;-80
2022/05/14 03:15:11;;;;;;;13.98;7.22;;;6.20;99.90;;;;;;4997040;28;20419;-81
2022/05/14 03:17:40;;;;;;;16.85;6.90;;;6.20;99.90;;;;;;4992949;28;20393;-81
2022/05/14 03:20:12;;;;;;;21.25;8.10;;;6.30;99.90;;;;;;5004997;28;20420;-81
2022/05/14 03:22:41;;;;;;;16.67;7.53;;;6.40;99.90;;;;;;4994205;28;20400;-81
2022/05/14 03:25:10;;;;;;;18.20;8.27;;;6.40;99.90;;;;;;5009269;28;20938;-81
2022/05/14 03:27:38;;;;;;;19.52;8.25;;;6.20;99.90;;;;;;4992743;28;20740;-80
2022/05/14 03:30:07;;;;;;;14.90;8.17;;;6.30;99.90;;;;;;5012361;28;20391;-81
2022/05/14 03:32:35;;;;;;;18.67;8.82;;;6.30;99.90;;;;;;4988498;28;20397;-80
2022/05/14 03:35:05;;;;;;;19.42;9.10;;;6.20;99.90;;;;;;4993208;28;20388;-82
2022/05/14 03:37:33;;;;;;;18.15;8.63;;;6.40;99.90;;;;;;5004480;28;20794;-81
2022/05/14 03:40:03;;;;;;;15.90;8.48;;;6.30;99.90;;;;;;4976991;28;20467;-80
2022/05/14 03:42:31;;;;;;;14.40;8.15;;;6.30;99.90;;;;;;5007987;28;20915;-80
2022/05/14 03:44:59;;;;;;;17.50;7.60;;;6.30;99.90;;;;;;4999643;28;20935;-81
2022/05/14 03:47:28;;;;;;;17.52;8.20;;;6.40;99.90;;;;;;5011912;28;20395;-83
2022/05/14 03:49:57;;;;;;;17.07;8.90;;;6.30;99.90;;;;;;5011695;28;20403;-81
2022/05/14 03:52:24;;;;;;;15.82;8.52;;;6.40;99.90;;;;;;5012659;28;20395;-82
2022/05/14 03:54:52;;;;;;;15.52;8.52;;;6.40;99.90;;;;;;5004009;28;20397;-81
2022/05/14 03:57:20;;;;;;;16.67;8.48;;;6.40;99.90;;;;;;5007410;28;20399;-80
2022/05/14 03:59:48;;;;;;;16.88;8.43;;;6.40;99.90;;;;;;5009444;28;20460;-81
2022/05/14 04:02:17;;;;;;;14.32;8.98;;;6.50;99.90;;;;;;5008092;28;20399;-79
2022/05/14 04:04:45;;;;;;;14.80;8.60;;;6.40;99.90;;;;;;4995449;28;20863;-82
2022/05/14 04:07:19;;;;;;;14.52;8.27;;;6.50;99.90;;;;;;5008789;28;20882;-81
2022/05/14 04:09:47;;;;;;;14.70;8.75;;;6.40;99.90;;;;;;5011639;28;20406;-82
2022/05/14 04:12:15;;;;;;;14.88;8.05;;;6.50;99.90;;;;;;4995167;28;20439;-81
2022/05/14 04:14:42;;;;;;;13.23;8.70;;;6.50;99.90;;;;;;4993070;28;20812;-81
2022/05/14 04:17:10;;;;;;;14.75;9.48;;;6.40;99.90;;;;;;4975944;28;20401;-80
2022/05/14 04:19:38;;;;;;;16.35;9.23;;;6.30;99.90;;;;;;4999431;28;20771;-82
2022/05/14 04:22:06;;;;;;;17.38;9.90;;;6.30;99.90;;;;;;5003360;28;20397;-83
2022/05/14 04:24:34;;;;;;;15.90;9.07;;;6.30;99.90;;;;;;5010197;28;20410;-81
2022/05/14 04:27:03;;;;;;;16.88;9.38;;;6.20;99.90;;;;;;5011075;28;20387;-82
2022/05/14 04:29:31;;;;;;;18.38;9.43;;;6.30;99.90;;;;;;5004885;28;20451;-82
2022/05/14 04:31:59;;;;;;;12.40;8.75;;;6.30;99.90;;;;;;5007851;28;20804;-81
2022/05/14 04:34:27;;;;;;;16.98;8.45;;;6.30;99.90;;;;;;4991661;28;20400;-80
2022/05/14 04:36:56;;;;;;;15.13;8.52;;;6.40;99.90;;;;;;5007826;28;20412;-80
2022/05/14 04:39:31;;;;;;;17.30;9.05;;;6.40;99.90;;;;;;4981056;28;20763;-81
2022/05/14 04:42:03;;;;;;;16.08;8.07;;;6.40;99.90;;;;;;4991319;28;20446;-80
2022/05/14 04:44:33;;;;;;;16.05;8.57;;;6.50;99.90;;;;;;4992801;28;20761;-81
2022/05/14 04:47:02;;;;;;;15.80;8.43;;;6.30;99.90;;;;;;4988342;28;20879;-80
2022/05/14 04:49:29;;;;;;;16.25;9.00;;;6.40;99.90;;;;;;4992538;28;20396;-79
2022/05/14 04:51:58;;;;;;;17.13;9.65;;;6.30;99.90;;;;;;4985591;28;20392;-81
2022/05/14 04:54:26;;;;;;;13.57;8.65;;;6.40;99.90;;;;;;5008552;28;20401;-82
2022/05/14 04:56:54;;;;;;;17.80;8.10;;;6.40;99.90;;;;;;5005767;28;20413;-81
2022/05/14 04:59:21;;;;;;;15.05;8.50;;;6.60;99.90;;;;;;5002902;28;20491;-81
2022/05/14 05:04:36;;;;;;;15.52;8.23;;;6.50;99.90;;;;;;5015887;28;20393;-80
2022/05/14 05:07:05;;;;;;;14.45;8.23;;;6.50;99.90;;;;;;5000513;28;20389;-80
2022/05/14 05:09:33;;;;;;;19.25;10.45;;;6.40;99.90;;;;;;4986546;28;20453;-80
2022/05/14 05:12:00;;;;;;;16.38;8.27;;;6.50;99.90;;;;;;5007267;28;20397;-82
2022/05/14 05:14:28;;;;;;;15.27;8.27;;;6.40;99.90;;;;;;4992315;28;20403;-82
2022/05/14 05:16:57;;;;;;;16.50;8.10;;;6.40;99.90;;;;;;4990970;28;20407;-83
2022/05/14 05:19:25;;;;;;;17.27;9.27;;;6.50;99.90;;;;;;4997402;28;20422;-82
2022/05/14 05:21:52;;;;;;;17.50;8.70;;;6.40;99.90;;;;;;4984374;28;20394;-81
2022/05/14 05:24:20;;;;;;;15.55;8.77;;;6.50;99.90;;;;;;4997118;28;20471;-83
2022/05/14 05:26:48;;;;;;;12.00;7.55;;;6.40;99.90;;;;;;4992390;28;20473;-82
2022/05/14 05:29:15;;;;;;;16.45;8.27;;;6.50;99.90;;;;;;4996227;28;20427;-82
2022/05/14 05:31:43;;;;;;;15.70;8.10;;;6.40;99.90;;;;;;4999096;28;20459;-82
2022/05/14 05:34:12;;;;;;;15.68;8.98;;;6.40;99.90;;;;;;4992149;28;20871;-83
2022/05/14 05:36:39;;;;;;;14.32;8.40;;;6.40;99.90;;;;;;5009518;28;20609;-82
2022/05/14 05:39:08;;;;;;;13.93;8.32;;;6.50;99.90;;;;;;5006983;28;20411;-82
2022/05/14 05:41:36;;;;;;;14.93;8.88;;;6.50;99.90;;;;;;4994639;28;20388;-83
2022/05/14 05:44:03;;;;;;;15.50;8.32;;;6.50;99.90;;;;;;5001783;28;20420;-83
2022/05/14 05:46:34;;;;;;;16.35;8.20;;;6.50;99.90;;;;;;5008553;28;20484;-82
2022/05/14 05:49:05;;;;;;;14.80;8.33;;;6.50;99.90;;;;;;5010325;28;20403;-83
2022/05/14 05:51:33;;;;;;;15.43;8.05;;;6.50;99.90;;;;;;5011272;28;20429;-83
2022/05/14 05:56:47;;;;;;;11.50;7.38;;;6.60;99.90;;;;;;4994456;28;20403;-82
2022/05/14 05:59:15;;;;;;;12.88;8.27;;;6.50;99.90;;;;;;4991101;28;20821;-81
2022/05/14 06:01:44;;;;;;;15.60;7.78;;;6.60;99.90;;;;;;5006808;28;20414;-82
2022/05/14 06:04:12;;;;;;;14.57;7.85;;;6.60;99.90;;;;;;5010698;28;20392;-82
2022/05/14 06:06:43;;;;;;;14.65;8.27;;;6.60;99.90;;;;;;4995542;28;20413;-81
2022/05/14 06:09:15;;;;;;;16.00;8.40;;;6.60;99.90;;;;;;4998342;28;20393;-82
2022/05/14 06:11:44;;;;;;;15.95;9.30;;;6.60;99.90;;;;;;5007010;28;20921;-81
2022/05/14 06:14:12;;;;;;;15.20;8.65;;;6.70;99.90;;;;;;5014759;28;20741;-82
2022/05/14 06:16:41;;;;;;;13.98;8.82;;;6.60;99.90;;;;;;5010351;28;20424;-80
2022/05/14 06:19:09;;;;;;;13.55;8.30;;;6.60;99.90;;;;;;5011381;28;20403;-81
2022/05/14 06:21:39;;;;;;;14.18;9.57;;;6.60;99.90;;;;;;5003649;28;20385;-82
2022/05/14 06:24:08;;;;;;;11.52;8.00;;;6.60;99.90;;;;;;5010360;28;20389;-82
2022/05/14 06:26:37;;;;;;;14.05;8.20;;;6.70;99.90;;;;;;4995191;28;20396;-82
2022/05/14 06:29:05;;;;;;;15.60;9.77;;;6.60;99.90;;;;;;5010134;28;20396;-82
2022/05/14 06:31:35;;;;;;;15.15;8.95;;;6.60;99.90;;;;;;4985034;28;20403;-82
2022/05/14 06:34:03;;;;;;;14.48;8.38;;;6.70;99.90;;;;;;4995122;28;20385;-80
2022/05/14 06:36:32;;;;;;;13.48;8.68;;;6.80;99.90;;;;;;4977580;28;20393;-80
2022/05/14 06:39:00;;;;;;;13.88;8.90;;;6.80;99.90;;;;;;4979900;28;20413;-83
2022/05/14 06:41:30;;;;;;;12.38;8.25;;;6.80;99.90;;;;;;4994812;28;20395;-82
2022/05/14 06:43:58;;;;;;;12.40;8.53;;;6.80;99.90;;;;;;4993625;28;20388;-80
2022/05/14 06:46:28;;;;;;;12.65;8.38;;;6.90;99.90;;;;;;5011243;28;20675;-80
2022/05/14 06:48:56;;;;;;;13.57;8.95;;;7.00;99.90;;;;;;5014046;28;20944;-80
2022/05/14 06:51:27;;;;;;;12.33;8.27;;;7.00;99.90;;;;;;5014135;28;20396;-80
2022/05/14 06:54:00;;;;;;;13.07;8.02;;;7.00;99.90;;;;;;5014077;28;20755;-81
2022/05/14 06:56:30;;;;;;;15.75;8.68;;;7.00;99.90;;;;;;5003227;28;20453;-80
2022/05/14 06:59:00;;;;;;;14.67;9.13;;;7.00;99.90;;;;;;4995459;28;20807;-80
2022/05/14 07:01:28;;;;;;;14.88;9.18;;;7.10;99.90;;;;;;4999610;28;20760;-81
2022/05/14 07:06:48;;;;;;;17.60;10.32;;;7.00;99.90;;;;;;4998659;28;20441;-81
2022/05/14 07:09:18;;;;;;;15.85;9.45;;;7.10;99.90;;;;;;5011417;28;20407;-82
2022/05/14 07:11:49;;;;;;;14.63;9.35;;;7.00;99.90;;;;;;5012505;28;20653;-80
2022/05/14 07:14:18;;;;;;;18.88;10.93;;;7.10;99.90;;;;;;5012785;28;20395;-81
2022/05/14 07:16:47;;;;;;;18.92;10.68;;;7.10;99.90;;;;;;4994687;28;20829;-80
2022/05/14 07:19:16;;;;;;;15.43;10.20;;;7.10;99.90;;;;;;5002241;28;20434;-82
2022/05/14 07:21:46;;;;;;;19.02;10.48;;;7.10;99.90;;;;;;4996277;28;20387;-82
2022/05/14 07:24:17;;;;;;;19.55;10.80;;;7.10;99.90;;;;;;5013466;28;20388;-81
2022/05/14 07:26:46;;;;;;;17.57;10.53;;;7.20;99.90;;;;;;5012411;28;20388;-81
2022/05/14 07:29:19;;;;;;;18.05;11.38;;;7.20;99.90;;;;;;5013300;28;20430;-80
2022/05/14 07:31:47;;;;;;;18.58;10.73;;;7.20;99.90;;;;;;5012425;28;20912;-81
2022/05/14 07:34:16;;;;;;;17.83;10.50;;;7.30;99.90;;;;;;5013410;28;20422;-81
2022/05/14 07:36:57;;;;;;;19.38;10.55;;;7.40;99.90;;;;;;5011922;28;20423;-81
2022/05/14 07:39:29;;;;;;;19.20;11.07;;;7.40;99.90;;;;;;4995960;28;20459;-80
2022/05/14 07:42:00;;;;;;;18.77;11.73;;;7.40;99.90;;;;;;4995510;28;20412;-83
2022/05/14 07:44:33;;;;;;;16.77;10.55;;;7.30;99.90;;;;;;4993938;28;20384;-82
2022/05/14 07:47:02;;;;;;;16.95;11.30;;;7.30;99.90;;;;;;5001332;28;20406;-83
2022/05/14 07:49:30;;;;;;;17.05;11.32;;;7.40;99.90;;;;;;5002998;28;20400;-82
2022/05/14 07:51:59;;;;;;;20.98;12.00;;;7.40;99.90;;;;;;4993729;28;20397;-83
2022/05/14 07:54:26;;;;;;;19.98;11.20;;;7.30;99.90;;;;;;5007585;28;20393;-80
2022/05/14 07:56:55;;;;;;;18.23;10.67;;;7.40;99.90;;;;;;5011830;28;20399;-81
2022/05/14 07:59:22;;;;;;;19.58;10.30;;;7.40;99.90;;;;;;5012770;28;20460;-83
2022/05/14 08:01:50;;;;;;;17.85;10.73;;;7.50;99.90;;;;;;5012809;28;20481;-82
2022/05/14 08:04:18;;;;;;;16.13;10.30;;;7.40;99.90;;;;;;5012426;28;20384;-83
2022/05/14 08:06:46;;;;;;;20.83;11.20;;;7.50;99.90;;;;;;5010650;28;20403;-83
2022/05/14 08:09:13;;;;;;;18.13;10.57;;;7.50;99.90;;;;;;5003286;28;20402;-84
2022/05/14 08:11:41;;;;;;;17.98;10.80;;;7.60;99.90;;;;;;4999672;28;20403;-82
2022/05/14 08:14:09;;;;;;;22.05;11.63;;;7.50;99.90;;;;;;5004134;28;20444;-85
2022/05/14 08:16:38;;;;;;;19.20;11.35;;;7.50;99.90;;;;;;4992633;28;20386;-86
2022/05/14 08:19:05;;;;;;;19.77;11.52;;;7.50;99.90;;;;;;4995716;28;20428;-86
2022/05/14 08:24:35;;;;;;;18.92;10.88;;;7.50;99.90;;;;;;4993641;28;20879;-84
2022/05/14 08:27:07;;;;;;;19.15;11.48;;;7.60;99.90;;;;;;4993549;28;20447;-86
2022/05/14 08:29:45;;;;;;;20.63;12.63;;;7.50;99.90;;;;;;4993325;28;20875;-84
2022/05/14 08:32:13;;;;;;;20.52;12.68;;;7.50;99.90;;;;;;4993590;28;20399;-86
2022/05/14 08:34:40;;;;;;;20.13;12.43;;;7.50;99.90;;;;;;4991800;28;20411;-86
2022/05/14 08:37:08;;;;;;;20.10;12.00;;;7.60;99.90;;;;;;4993135;28;20393;-85
2022/05/14 08:39:36;;;;;;;19.13;12.48;;;7.60;99.90;;;;;;4999282;28;20899;-86
2022/05/14 08:42:08;;;;;;;18.20;12.05;;;7.60;99.90;;;;;;5007674;28;20754;-86
2022/05/14 08:44:39;;;;;;;23.30;12.63;;;7.70;99.90;;;;;;5011028;28;20416;-86
2022/05/14 08:47:21;;;;;;;21.67;12.27;;;7.70;99.90;;;;;;5012750;28;20391;-86
2022/05/14 08:49:51;;;;;;;21.40;11.52;;;7.70;99.90;;;;;;5009897;28;20905;-83
2022/05/14 08:52:23;;;;;;;21.55;12.57;;;7.80;99.90;;;;;;4995038;28;20403;-88
2022/05/14 08:54:58;;;;;;;22.65;12.32;;;7.80;99.90;;;;;;5000333;28;20388;-86
2022/05/14 08:57:49;;;;;;;20.60;12.37;;;7.80;99.90;;;;;;4997890;28;20748;-86
2022/05/14 09:00:18;;;;;;;19.17;12.40;;;7.90;99.90;;;;;;4962428;28;20412;-87
2022/05/14 09:02:50;;;;;;;19.92;12.10;;;7.90;99.90;;;;;;4991495;28;20428;-86
2022/05/14 09:05:36;;;;;;;18.90;11.85;;;7.90;99.90;;;;;;4992896;28;20393;-85
2022/05/14 09:08:04;;;;;;;21.73;11.98;;;7.90;99.90;;;;;;4993162;28;20389;-86
2022/05/14 09:10:39;;;;;;;20.40;12.67;;;7.90;99.90;;;;;;4992434;28;20404;-87
2022/05/14 09:13:15;;;;;;;22.52;12.43;;;8.00;99.90;;;;;;4995245;28;20493;-87
2022/05/14 09:15:51;;;;;;;17.05;11.48;;;7.90;99.90;;;;;;4992770;28;20420;-85
2022/05/14 09:18:43;;;;;;;21.33;12.43;;;8.00;99.90;;;;;;4992515;28;20399;-85
2022/05/14 09:21:25;;;;;;;20.10;12.00;;;8.10;99.90;;;;;;4993301;28;20409;-85
2022/05/14 09:23:55;;;;;;;18.23;11.07;;;8.10;99.90;;;;;;4991926;28;20400;-85
2022/05/14 09:26:37;;;;;;;17.57;11.17;;;8.20;99.90;;;;;;4989559;28;20440;-85
2022/05/14 09:29:28;;;;;;;18.40;10.70;;;8.10;99.90;;;;;;5010536;28;20425;-85
2022/05/14 09:31:59;;;;;;;19.80;10.50;;;8.10;99.90;;;;;;5010008;28;20395;-85
2022/05/14 09:34:34;;;;;;;17.67;10.68;;;8.20;99.90;;;;;;5010922;28;20427;-86
2022/05/14 09:37:09;;;;;;;16.60;10.35;;;8.20;99.90;;;;;;4994885;28;20413;-84
2022/05/14 09:39:39;;;;;;;18.75;11.02;;;8.10;99.90;;;;;;5011719;28;20417;-85
2022/05/14 09:42:21;;;;;;;15.55;9.75;;;8.20;99.90;;;;;;4994718;28;20395;-84
2022/05/14 09:44:54;;;;;;;19.10;11.20;;;8.20;99.90;;;;;;5012012;28;20379;-86
2022/05/14 09:47:27;;;;;;;17.67;10.83;;;8.30;99.90;;;;;;5011581;28;20395;-85
2022/05/14 09:50:01;;;;;;;16.05;9.95;;;8.40;99.90;;;;;;5003083;28;20925;-84
2022/05/14 09:52:35;;;;;;;15.25;9.60;;;8.40;99.90;;;;;;4991451;28;20503;-84
2022/05/14 09:55:08;;;;;;;14.25;9.55;;;8.50;99.90;;;;;;4997038;28;20390;-86
2022/05/14 09:57:53;;;;;;;16.97;10.43;;;8.50;99.90;;;;;;4994895;28;20520;-86
2022/05/14 10:00:36;;;;;;;15.50;9.80;;;8.60;99.90;;;;;;4991172;28;20419;-85
2022/05/14 10:03:23;;;;;;;14.75;9.90;;;8.60;99.90;;;;;;5010011;28;20865;-85
2022/05/14 10:06:18;;;;;;;16.55;10.35;;;8.70;99.90;;;;;;4979587;28;20491;-85
2022/05/14 10:09:06;;;;;;;14.05;9.07;;;8.70;99.90;;;;;;5009327;28;20382;-86
2022/05/14 10:11:42;;;;;;;14.55;8.80;;;8.80;99.90;;;;;;5009178;28;20409;-85
2022/05/14 10:14:30;;;;;;;16.35;9.18;;;8.90;99.90;;;;;;5008933;28;20410;-85
2022/05/14 10:17:34;;;;;;;13.82;8.70;;;9.00;99.90;;;;;;5000419;28;20894;-86
2022/05/14 10:20:37;;;;;;;13.75;7.95;;;9.00;99.90;;;;;;4993578;28;20503;-87
2022/05/14 10:26:46;;;;;;;12.73;7.63;;;9.10;99.90;;;;;;5005961;28;20407;-85
2022/05/14 10:29:46;;;;;;;13.02;7.20;;;9.00;99.90;;;;;;4992457;28;20867;-86
2022/05/14 10:32:17;;;;;;;10.85;6.35;;;9.00;99.90;;;;;;5008641;28;20857;-86
2022/05/14 10:35:09;;;;;;;9.93;6.63;;;9.00;99.90;;;;;;5004276;28;20395;-86
2022/05/14 10:38:06;;;;;;;9.50;6.60;;;9.00;99.90;;;;;;4981553;28;20888;-86
2022/05/14 10:40:46;;;;;;;10.73;6.60;;;9.10;99.90;;;;;;4949260;28;20412;-86
2022/05/14 10:43:36;;;;;;;10.48;5.80;;;9.10;99.90;;;;;;4991483;28;20397;-86
2022/05/14 10:46:08;;;;;;;9.30;5.13;;;9.20;99.90;;;;;;5010083;28;20875;-86
2022/05/14 10:48:44;;;;;;;10.82;6.00;;;9.30;99.90;;;;;;4996436;28;20399;-85
2022/05/14 10:51:21;;;;;;;8.40;5.65;;;9.30;99.90;;;;;;5013331;28;20458;-86
2022/05/14 10:53:49;;;;;;;10.07;5.87;;;9.40;99.90;;;;;;5013320;28;20482;-85
2022/05/14 10:56:25;;;;;;;9.82;5.20;;;9.40;99.90;;;;;;5012826;28;20435;-85
2022/05/14 10:58:56;;;;;;;8.33;5.07;;;9.50;99.90;;;;;;5013364;28;20474;-85
2022/05/14 11:01:52;;;;;;;6.75;4.45;;;9.50;99.90;;;;;;4999248;28;20404;-83
2022/05/14 11:04:40;;;;;;;8.13;4.70;;;9.50;99.90;;;;;;4994635;28;20460;-82
2022/05/14 11:07:24;;;;;;;6.82;4.57;;;9.40;99.90;;;;;;4996872;28;20421;-83
2022/05/14 11:09:53;;;;;;;7.43;4.80;;;9.30;99.90;;;;;;5009320;28;20389;-82
2022/05/14 11:12:24;;;;;;;5.35;3.65;;;9.30;99.90;;;;;;5009942;28;20420;-83
2022/05/14 11:14:58;;;;;;;5.75;3.97;;;9.20;99.90;;;;;;5004690;28;20414;-82
2022/05/14 11:17:31;;;;;;;4.65;2.67;;;9.20;99.90;;;;;;5003270;28;20897;-82
2022/05/14 11:20:02;;;;;;;5.03;2.08;;;9.20;99.90;;;;;;4986524;28;20441;-82
2022/05/14 11:22:40;;;;;;;4.90;2.80;;;9.30;99.90;;;;;;4998873;28;20496;-82
2022/05/14 11:25:13;;;;;;;4.78;2.22;;;9.30;99.90;;;;;;5009145;28;20474;-83
2022/05/14 11:27:55;;;;;;;4.85;2.30;;;9.40;99.90;;;;;;4997359;28;20875;-82
2022/05/14 11:30:42;;;;;;;4.10;2.22;;;9.40;99.90;;;;;;4994130;28;20397;-82
2022/05/14 11:33:31;;;;;;;4.28;2.25;;;9.50;99.90;;;;;;5007440;28;20400;-82
2022/05/14 11:36:04;;;;;;;3.67;1.98;;;9.60;99.90;;;;;;4990940;28;20762;-82
2022/05/14 11:38:39;;;;;;;2.35;1.42;;;9.70;99.90;;;;;;5007366;28;20395;-82
2022/05/14 11:41:31;;;;;;;2.72;1.65;;;9.80;99.90;;;;;;5004067;28;20511;-82
2022/05/14 11:44:04;;;;;;;3.20;1.90;;;9.90;99.90;;;;;;5001720;28;20491;-83
2022/05/14 11:46:48;;;;;;;4.57;2.22;;;9.90;99.90;;;;;;4982929;28;20465;-83
2022/05/14 11:49:24;;;;;;;2.47;1.30;;;10.00;99.90;;;;;;5004008;28;20407;-82
2022/05/14 11:52:17;;;;;;;2.15;1.50;;;10.00;99.90;;;;;;5002373;28;20397;-82
2022/05/14 11:55:03;;;;;;;3.35;1.15;;;10.00;99.90;;;;;;5003722;28;20439;-82
2022/05/14 11:57:58;;;;;;;2.03;0.90;;;10.20;99.90;;;;;;5004252;28;20487;-82
2022/05/14 12:00:35;;;;;;;1.27;0.85;;;10.30;99.90;;;;;;5008180;28;20479;-82
2022/05/14 12:03:10;;;;;;;1.20;0.95;;;10.30;99.90;;;;;;4995550;28;20455;-82
2022/05/14 12:05:57;;;;;;;2.35;0.98;;;10.30;99.90;;;;;;5001187;28;20886;-83
2022/05/14 12:08:49;;;;;;;1.70;0.90;;;10.30;99.90;;;;;;4990168;28;20459;-83
2022/05/14 12:11:40;;;;;;;4.60;0.95;;;10.30;99.90;;;;;;5005245;28;20488;-82
2022/05/14 12:14:11;;;;;;;3.60;1.00;;;10.40;99.90;;;;;;4995029;28;20477;-83
2022/05/14 12:16:47;;;;;;;1.38;0.80;;;10.60;99.90;;;;;;4980665;28;20482;-83
2022/05/14 12:19:19;;;;;;;1.17;0.90;;;10.70;99.90;;;;;;4988318;28;20524;-82
2022/05/14 12:21:52;;;;;;;2.03;0.87;;;10.70;99.90;;;;;;4993114;28;20416;-83
2022/05/14 12:24:27;;;;;;;0.80;0.75;;;10.70;99.90;;;;;;4992246;28;20396;-83
2022/05/14 12:26:55;;;;;;;0.87;0.70;;;10.60;99.90;;;;;;5007337;28;20772;-83
2022/05/14 12:29:29;;;;;;;1.47;0.93;;;10.60;99.90;;;;;;5005678;28;20893;-82
2022/05/14 12:34:54;;;;;;;2.28;1.17;;;10.40;99.90;;;;;;5011138;28;20541;-83
2022/05/14 12:37:28;;;;;;;3.70;1.58;;;10.30;99.90;;;;;;5011101;28;20801;-82
2022/05/14 12:39:58;;;;;;;3.75;1.17;;;10.20;99.90;;;;;;4995190;28;20478;-83
2022/05/14 12:42:37;;;;;;;2.72;1.30;;;10.10;99.90;;;;;;5010799;28;20499;-83
2022/05/14 12:45:07;;;;;;;5.43;1.60;;;9.90;99.90;;;;;;4994846;28;20399;-83
2022/05/14 12:47:37;;;;;;;3.72;1.48;;;9.90;99.90;;;;;;5010995;28;20398;-83
2022/05/14 12:50:30;;;;;;;2.67;1.13;;;9.90;99.90;;;;;;4995078;28;20395;-83
2022/05/14 12:53:08;;;;;;;2.70;1.10;;;9.80;99.90;;;;;;5010618;28;20383;-83
2022/05/14 12:55:39;;;;;;;2.80;1.00;;;9.80;99.90;;;;;;4994764;28;20936;-83
2022/05/14 12:58:09;;;;;;;1.70;0.98;;;9.80;99.90;;;;;;4995182;28;20406;-84
2022/05/14 13:00:38;;;;;;;2.17;0.90;;;9.90;99.90;;;;;;4991559;28;20496;-84
2022/05/14 13:03:31;;;;;;;1.13;0.80;;;10.20;99.90;;;;;;4994587;28;20403;-84
2022/05/14 13:06:27;;;;;;;1.30;0.73;;;10.60;99.90;;;;;;5010270;28;20762;-82
2022/05/14 13:08:58;;;;;;;1.63;0.90;;;10.70;99.90;;;;;;4994200;28;20454;-83
2022/05/14 13:11:30;;;;;;;0.90;0.70;;;10.80;99.90;;;;;;4994732;28;20410;-83
2022/05/14 13:14:09;;;;;;;1.20;0.80;;;11.10;99.90;;;;;;4994653;28;20901;-83
2022/05/14 13:16:37;;;;;;;2.33;0.90;;;11.40;99.90;;;;;;4994061;28;20399;-83
2022/05/14 13:19:36;;;;;;;2.75;0.95;;;11.20;99.90;;;;;;5010869;28;20398;-82
2022/05/14 13:22:09;;;;;;;1.98;0.85;;;11.20;99.90;;;;;;4994287;28;20473;-83
2022/05/14 13:24:37;;;;;;;3.47;0.98;;;11.10;99.90;;;;;;4993799;28;20754;-83
2022/05/14 13:27:11;;;;;;;2.35;1.05;;;11.10;99.90;;;;;;5010129;28;20857;-82
2022/05/14 13:29:41;;;;;;;2.10;1.10;;;10.90;99.90;;;;;;4986264;28;20439;-83
2022/05/14 13:32:20;;;;;;;3.33;1.27;;;10.90;99.90;;;;;;5006946;28;20430;-84
2022/05/14 13:37:42;;;;;;;3.88;1.38;;;10.90;99.90;;;;;;5001871;28;20401;-83
2022/05/14 13:40:22;;;;;;;1.50;1.10;;;10.90;99.90;;;;;;5007292;28;20479;-84